European Seaway — MPDG3 — position and weather

sailwx.info

Track history (hours):
 
Tides and Currents Weather Stations Pressure Air Temp Water Temp Dewpoint Dewpoint Depression Visibility Wind Speed Wind Dir Waves Ship Positions

European Seaway

Operator: P & O Ferries

Last reported at 2017-Oct-20 19:30 UTC. Time now 2017-Oct-20 19:51 UTC.
Position N 50°58' E 001°51'.

Length 179 m; draft 6.1 m.

Type: Passenger vessel. MMSI: 232001040.

Date/timePositionNaut miles runAvg speedWind from/ knotsBaromVisibWave heightAir tempDewpointWater temp
2017-Oct-20 19:30N 50°58' E 001°51'5 9.3
2017-Oct-20 19:00N 50°58' E 001°44'816.5
2017-Oct-20 18:31N 51°02' E 001°32'917.2
2017-Oct-20 18:00N 51°07' E 001°21'1 1.5
2017-Oct-20 17:30N 51°07' E 001°20'0 0.0
2017-Oct-20 17:00N 51°07' E 001°20'2 3.8
2017-Oct-20 16:30N 51°07' E 001°23'3 6.7
2017-Oct-20 16:00N 51°06' E 001°28'713.6
2017-Oct-20 15:31N 51°02' E 001°37'714.3
2017-Oct-20 15:01N 50°58' E 001°46'3 3.5
2017-Oct-20 14:00N 50°58' E 001°52'0 0.4
2017-Oct-20 13:30N 50°58' E 001°52'0 0.0
2017-Oct-20 13:00N 50°58' E 001°52'0 0.0
2017-Oct-20 12:30N 50°58' E 001°52'0 0.0
2017-Oct-20 12:00N 50°58' E 001°52'0 0.0
2017-Oct-20 11:30N 50°58' E 001°52'0 0.0
2017-Oct-20 10:56N 50°58' E 001°52'0 0.0
2017-Oct-20 10:29N 50°58' E 001°52'0 0.0
2017-Oct-20 10:00N 50°58' E 001°52'0 0.0
2017-Oct-20 09:30N 50°58' E 001°52'0 0.0
2017-Oct-20 09:00N 50°58' E 001°52'0 0.0
2017-Oct-20 08:30N 50°58' E 001°52'0 0.0
2017-Oct-20 08:00N 50°58' E 001°52'0 0.0
2017-Oct-20 07:30N 50°58' E 001°52'0 0.0
2017-Oct-20 07:00N 50°58' E 001°52'0 0.0
2017-Oct-20 06:30N 50°58' E 001°52'0 0.0
2017-Oct-20 06:00N 50°58' E 001°52'0 0.0
2017-Oct-20 05:30N 50°58' E 001°52'0 0.0
2017-Oct-20 05:00N 50°58' E 001°52'0 0.0
2017-Oct-20 04:30N 50°58' E 001°52'0 0.0
2017-Oct-20 04:00N 50°58' E 001°52'0 0.0
2017-Oct-20 03:30N 50°58' E 001°52'0 0.0
2017-Oct-20 03:00N 50°58' E 001°52'0 0.0
2017-Oct-20 02:30N 50°58' E 001°52'0 0.0
2017-Oct-20 02:00N 50°58' E 001°52'0 0.0
2017-Oct-20 01:30N 50°58' E 001°52'0 0.0
2017-Oct-20 01:00N 50°58' E 001°52'0 0.0
2017-Oct-20 00:30N 50°58' E 001°52'0 0.0
2017-Oct-20 00:00N 50°58' E 001°52'0 0.0
2017-Oct-19 23:30N 50°58' E 001°52'0 0.0
2017-Oct-19 23:00N 50°58' E 001°52'0 0.0
2017-Oct-19 22:30N 50°58' E 001°52'0 0.0
2017-Oct-19 22:00N 50°58' E 001°52'0 0.0
2017-Oct-19 21:30N 50°58' E 001°52'0 0.0
2017-Oct-19 21:00N 50°58' E 001°52'0 0.0
2017-Oct-19 20:30N 50°58' E 001°52'0 0.0
2017-Oct-19 20:00N 50°58' E 001°52'0 0.0
2017-Oct-19 19:31N 50°58' E 001°52'0 0.4
2017-Oct-19 19:01N 50°58' E 001°52'2 4.3
2017-Oct-19 18:30N 50°58' E 001°48'815.8
2017-Oct-19 18:00N 50°58' E 001°36'917.3
2017-Oct-19 17:31N 51°04' E 001°25'5 9.4
2017-Oct-19 17:00N 51°07' E 001°20'0 0.0
2017-Oct-19 16:30N 51°07' E 001°20'0 0.3
2017-Oct-19 15:59N 51°07' E 001°20'714.4
2017-Oct-19 15:31N 51°05' E 001°30'917.9
2017-Oct-19 15:01N 50°60' E 001°42'611.9
2017-Oct-19 14:30N 50°58' E 001°51'0 0.0
2017-Oct-19 14:00N 50°58' E 001°51'2 3.2
2017-Oct-19 13:31N 50°58' E 001°48'816.7
2017-Oct-19 13:01N 50°60' E 001°35'714.4
2017-Oct-19 12:31N 51°05' E 001°27'510.3
2017-Oct-19 12:00N 51°07' E 001°20'0 0.0
2017-Oct-19 11:31N 51°07' E 001°20'0 0.8
2017-Oct-19 11:00N 51°07' E 001°21'817.1
2017-Oct-19 10:31N 51°04' E 001°33'917.7
2017-Oct-19 10:01N 50°58' E 001°44'5 9.4
2017-Oct-19 09:30N 50°58' E 001°52'0 0.0
2017-Oct-19 09:00N 50°58' E 001°52'0 0.0
2017-Oct-19 08:30N 50°58' E 001°52'0 0.2
2017-Oct-19 08:00N 50°58' E 001°52'0 0.0
2017-Oct-19 07:30N 50°58' E 001°52'0 0.0
2017-Oct-19 07:00N 50°58' E 001°52'0 0.0
2017-Oct-19 06:30N 50°58' E 001°52'0 0.0
2017-Oct-19 06:00N 50°58' E 001°52'0 0.0
2017-Oct-19 05:30N 50°58' E 001°52'0 0.0
2017-Oct-19 05:00N 50°58' E 001°52'0 0.0
2017-Oct-19 04:30N 50°58' E 001°52'0 0.0
2017-Oct-19 04:00N 50°58' E 001°52'0 0.0
2017-Oct-19 03:30N 50°58' E 001°52'0 0.0
2017-Oct-19 03:00N 50°58' E 001°52'0 0.0
2017-Oct-19 02:30N 50°58' E 001°52'0 0.0
2017-Oct-19 02:00N 50°58' E 001°52'0 0.0
2017-Oct-19 01:30N 50°58' E 001°52'0 0.0
2017-Oct-19 01:00N 50°58' E 001°52'0 0.0
2017-Oct-19 00:30N 50°58' E 001°52'0 0.0
2017-Oct-19 00:00N 50°58' E 001°52'0 0.0
2017-Oct-18 23:30N 50°58' E 001°52'0 0.0
2017-Oct-18 23:00N 50°58' E 001°52'0 0.0
2017-Oct-18 22:30N 50°58' E 001°52'0 0.0
2017-Oct-18 22:01N 50°58' E 001°52'0 0.0
2017-Oct-18 21:30N 50°58' E 001°52'0 0.0
2017-Oct-18 21:01N 50°58' E 001°52'0 0.0
2017-Oct-18 20:30N 50°58' E 001°52'0 0.0
2017-Oct-18 20:00N 50°58' E 001°52'0 0.0
2017-Oct-18 19:30N 50°58' E 001°52'0 0.8
2017-Oct-18 19:00N 50°58' E 001°51'3 5.2
2017-Oct-18 18:30N 50°58' E 001°47'816.0
2017-Oct-18 18:01N 50°58' E 001°34'918.2
2017-Oct-18 17:30N 51°05' E 001°25'4 7.6
2017-Oct-18 17:00N 51°07' E 001°20'0 0.0
2017-Oct-18 16:30N 51°07' E 001°20'1 1.8
2017-Oct-18 16:00N 51°07' E 001°21'816.4
2017-Oct-18 15:30N 51°04' E 001°34'815.8
2017-Oct-18 15:00N 50°59' E 001°43'5 5.1
2017-Oct-18 14:00N 50°58' E 001°51'0 0.5
2017-Oct-18 13:30N 50°58' E 001°51'815.9
2017-Oct-18 13:01N 50°59' E 001°38'816.8
2017-Oct-18 12:31N 51°04' E 001°27'611.3
2017-Oct-18 12:00N 51°07' E 001°20'0 0.0
2017-Oct-18 11:22N 51°07' E 001°20'0 0.0
2017-Oct-18 11:00N 51°07' E 001°20'5 9.5
2017-Oct-18 10:31N 51°06' E 001°27'917.7
2017-Oct-18 10:01N 51°01' E 001°39'815.2
2017-Oct-18 09:30N 50°58' E 001°50'1 2.0
2017-Oct-18 09:00N 50°58' E 001°52'0 0.0
2017-Oct-18 08:30N 50°58' E 001°52'0 0.0
2017-Oct-18 08:00N 50°58' E 001°52'0 0.0
2017-Oct-18 07:30N 50°58' E 001°52'0 0.0
2017-Oct-18 07:00N 50°58' E 001°52'0 0.0
2017-Oct-18 06:30N 50°58' E 001°52'0 0.0
2017-Oct-18 06:00N 50°58' E 001°52'0 0.0
2017-Oct-18 05:30N 50°58' E 001°52'0 0.0
2017-Oct-18 05:00N 50°58' E 001°52'0 0.0
2017-Oct-18 04:30N 50°58' E 001°52'0 0.0
2017-Oct-18 04:00N 50°58' E 001°52'0 0.0
2017-Oct-18 03:30N 50°58' E 001°52'0 0.0
2017-Oct-18 03:00N 50°58' E 001°52'0 0.0
2017-Oct-18 02:30N 50°58' E 001°52'0 0.0
2017-Oct-18 02:00N 50°58' E 001°52'0 0.0
2017-Oct-18 01:30N 50°58' E 001°52'0 0.0
2017-Oct-18 01:00N 50°58' E 001°52'0 0.0
2017-Oct-18 00:30N 50°58' E 001°52'0 0.0
2017-Oct-18 00:00N 50°58' E 001°52'0 0.0
2017-Oct-17 23:30N 50°58' E 001°52'0 0.0
2017-Oct-17 23:00N 50°58' E 001°52'0 0.0
2017-Oct-17 22:30N 50°58' E 001°52'0 0.0
2017-Oct-17 22:00N 50°58' E 001°52'0 0.0
2017-Oct-17 21:30N 50°58' E 001°52'0 0.0
2017-Oct-17 21:00N 50°58' E 001°52'0 0.0
2017-Oct-17 20:30N 50°58' E 001°52'0 0.0
2017-Oct-17 20:00N 50°58' E 001°52'0 0.0
2017-Oct-17 19:30N 50°58' E 001°52'0 0.0
2017-Oct-17 19:00N 50°58' E 001°52'2 3.5
2017-Oct-17 18:30N 50°58' E 001°49'816.5
2017-Oct-17 18:01N 51°00' E 001°36'918.0
2017-Oct-17 17:31N 51°05' E 001°25'3 6.7
2017-Oct-17 17:00N 51°07' E 001°20'0 0.0
2017-Oct-17 16:30N 51°07' E 001°20'2 3.5
2017-Oct-17 16:00N 51°07' E 001°23'917.3
2017-Oct-17 15:31N 51°03' E 001°35'918.0
2017-Oct-17 15:00N 50°58' E 001°47'2 4.8
2017-Oct-17 14:30N 50°58' E 001°51'0 0.0
2017-Oct-17 14:00N 50°58' E 001°51'0 0.0
2017-Oct-17 13:31N 50°58' E 001°51'713.1
2017-Oct-17 13:00N 50°59' E 001°41'918.4
2017-Oct-17 12:30N 51°04' E 001°28'612.6
2017-Oct-17 12:00N 51°07' E 001°20'0 0.0
2017-Oct-17 11:30N 51°07' E 001°20'0 0.0
2017-Oct-17 10:59N 51°07' E 001°20'511.2
2017-Oct-17 10:30N 51°07' E 001°28'917.3
2017-Oct-17 10:00N 51°01' E 001°39'714.8
2017-Oct-17 09:31N 50°58' E 001°50'1 2.4
2017-Oct-17 09:01N 50°58' E 001°52'0 0.0
2017-Oct-17 08:30N 50°58' E 001°52'0 0.0
2017-Oct-17 08:00N 50°58' E 001°52'0 0.0
2017-Oct-17 07:30N 50°58' E 001°52'0 0.0
2017-Oct-17 07:00N 50°58' E 001°52'0 0.0
2017-Oct-17 06:30N 50°58' E 001°52'0 0.0
2017-Oct-17 06:00N 50°58' E 001°52'0 0.0
2017-Oct-17 05:30N 50°58' E 001°52'0 0.0
2017-Oct-17 05:00N 50°58' E 001°52'0 0.0
2017-Oct-17 04:30N 50°58' E 001°52'0 0.0
2017-Oct-17 04:01N 50°58' E 001°52'0 0.0
2017-Oct-17 03:30N 50°58' E 001°52'0 0.0
2017-Oct-17 03:01N 50°58' E 001°52'0 0.0
2017-Oct-17 02:30N 50°58' E 001°52'0 0.0
2017-Oct-17 02:00N 50°58' E 001°52'0 0.0
2017-Oct-17 01:30N 50°58' E 001°52'0 0.0
2017-Oct-17 01:00N 50°58' E 001°52'0 0.0
2017-Oct-17 00:30N 50°58' E 001°52'0 0.0
2017-Oct-17 00:00N 50°58' E 001°52'0 0.0
2017-Oct-16 23:30N 50°58' E 001°52'0 0.0
2017-Oct-16 23:00N 50°58' E 001°52'0 0.0
2017-Oct-16 22:30N 50°58' E 001°52'0 0.0
2017-Oct-16 22:00N 50°58' E 001°52'0 0.0
2017-Oct-16 21:30N 50°58' E 001°52'0 0.0
2017-Oct-16 21:01N 50°58' E 001°52'0 0.0
2017-Oct-16 20:30N 50°58' E 001°52'0 0.0
2017-Oct-16 20:00N 50°58' E 001°52'0 0.0
2017-Oct-16 19:30N 50°58' E 001°52'0 0.0
2017-Oct-16 19:00N 50°58' E 001°52'0 0.4
2017-Oct-16 18:30N 50°58' E 001°51'815.3
2017-Oct-16 18:00N 50°58' E 001°39'918.2
2017-Oct-16 17:31N 51°04' E 001°27'612.0
2017-Oct-16 17:00N 51°07' E 001°20'0 0.0
2017-Oct-16 16:30N 51°07' E 001°20'1 1.5
2017-Oct-16 16:00N 51°07' E 001°21'714.5
2017-Oct-16 15:30N 51°04' E 001°31'918.8
2017-Oct-16 15:00N 50°59' E 001°44'4 4.4
2017-Oct-16 14:01N 50°58' E 001°51'0 0.0
2017-Oct-16 13:30N 50°58' E 001°51'0 0.0
2017-Oct-16 13:00N 50°58' E 001°51'0 0.0
2017-Oct-16 12:30N 50°58' E 001°51'0 0.0
2017-Oct-16 12:01N 50°58' E 001°51'0 0.0
2017-Oct-16 11:31N 50°58' E 001°51'0 0.0
2017-Oct-16 11:00N 50°58' E 001°51'0 0.0
2017-Oct-16 10:31N 50°58' E 001°51'0 0.0
2017-Oct-16 10:00N 50°58' E 001°51'0 0.0
2017-Oct-16 09:31N 50°58' E 001°51'0 0.0
2017-Oct-16 09:00N 50°58' E 001°51'0 0.0
2017-Oct-16 08:31N 50°58' E 001°51'0 0.0
2017-Oct-16 08:01N 50°58' E 001°51'0 0.0
2017-Oct-16 07:31N 50°58' E 001°51'0 0.0
2017-Oct-16 07:01N 50°58' E 001°51'0 0.0
2017-Oct-16 06:31N 50°58' E 001°51'0 0.0
2017-Oct-16 06:00N 50°58' E 001°51'0 0.0
2017-Oct-16 05:30N 50°58' E 001°51'0 0.0
2017-Oct-16 05:01N 50°58' E 001°51'0 0.0
2017-Oct-16 04:31N 50°58' E 001°51'0 0.0
2017-Oct-16 04:01N 50°58' E 001°51'0 0.0
2017-Oct-16 03:31N 50°58' E 001°51'0 0.0
2017-Oct-16 03:01N 50°58' E 001°51'0 0.0
2017-Oct-16 02:31N 50°58' E 001°51'0 0.0
2017-Oct-16 02:01N 50°58' E 001°51'0 0.0
2017-Oct-16 01:31N 50°58' E 001°51'0 0.0
2017-Oct-16 01:01N 50°58' E 001°51'0 0.0
2017-Oct-16 00:30N 50°58' E 001°51'0 0.0
2017-Oct-16 00:01N 50°58' E 001°51'0 0.0
2017-Oct-15 23:30N 50°58' E 001°51'0 0.0
2017-Oct-15 23:01N 50°58' E 001°51'0 0.0
2017-Oct-15 22:30N 50°58' E 001°51'0 0.0
2017-Oct-15 22:00N 50°58' E 001°51'0 0.0
2017-Oct-15 21:30N 50°58' E 001°51'0 0.0
2017-Oct-15 21:00N 50°58' E 001°51'0 0.0
2017-Oct-15 20:31N 50°58' E 001°51'0 0.0
2017-Oct-15 20:00N 50°58' E 001°51'0 0.0
2017-Oct-15 19:30N 50°58' E 001°51'0 0.0
2017-Oct-15 19:01N 50°58' E 001°51'0 0.3
2017-Oct-15 18:30N 50°58' E 001°51'917.3
2017-Oct-15 18:00N 50°60' E 001°37'918.9
2017-Oct-15 17:30N 51°05' E 001°25'4 7.4
2017-Oct-15 16:59N 51°07' E 001°20'0 0.0
2017-Oct-15 16:30N 51°07' E 001°20'1 2.1
2017-Oct-15 16:00N 51°07' E 001°22'816.2
2017-Oct-15 15:31N 51°03' E 001°33'918.6
2017-Oct-15 15:00N 50°58' E 001°45'4 4.1
2017-Oct-15 14:01N 50°58' E 001°52'0 0.0
2017-Oct-15 13:30N 50°58' E 001°52'0 0.6
2017-Oct-15 13:00N 50°58' E 001°52'0 0.0
2017-Oct-15 12:30N 50°58' E 001°52'0 0.0
2017-Oct-15 12:01N 50°58' E 001°52'0 0.0
2017-Oct-15 11:30N 50°58' E 001°52'0 0.0
2017-Oct-15 11:00N 50°58' E 001°52'0 0.0
2017-Oct-15 10:31N 50°58' E 001°52'0 0.0
2017-Oct-15 10:00N 50°58' E 001°52'0 0.0
2017-Oct-15 09:31N 50°58' E 001°52'0 0.0
2017-Oct-15 09:00N 50°58' E 001°52'0 0.0
2017-Oct-15 08:31N 50°58' E 001°52'0 0.0
2017-Oct-15 08:00N 50°58' E 001°52'0 0.0
2017-Oct-15 07:31N 50°58' E 001°52'0 0.0
2017-Oct-15 07:01N 50°58' E 001°52'0 0.0
2017-Oct-15 06:31N 50°58' E 001°52'0 0.0
2017-Oct-15 06:01N 50°58' E 001°52'0 0.0
2017-Oct-15 05:30N 50°58' E 001°52'0 0.0
2017-Oct-15 05:00N 50°58' E 001°52'0 0.0
2017-Oct-15 04:31N 50°58' E 001°52'0 0.0
2017-Oct-15 04:00N 50°58' E 001°52'0 0.0
2017-Oct-15 03:30N 50°58' E 001°52'0 0.0
2017-Oct-15 03:00N 50°58' E 001°52'0 0.0
2017-Oct-15 02:31N 50°58' E 001°52'0 0.0
2017-Oct-15 02:01N 50°58' E 001°52'0 0.0
2017-Oct-15 01:31N 50°58' E 001°52'0 0.0
2017-Oct-15 01:01N 50°58' E 001°52'0 0.0
2017-Oct-15 00:30N 50°58' E 001°52'0 0.0
2017-Oct-15 00:00N 50°58' E 001°52'0 0.0
2017-Oct-14 23:30N 50°58' E 001°52'0 0.0
2017-Oct-14 23:01N 50°58' E 001°52'0 0.0
2017-Oct-14 22:30N 50°58' E 001°52'0 0.0
2017-Oct-14 22:00N 50°58' E 001°52'0 0.0
2017-Oct-14 21:30N 50°58' E 001°52'0 0.0
2017-Oct-14 21:00N 50°58' E 001°52'0 0.0
2017-Oct-14 20:31N 50°58' E 001°52'0 0.0
2017-Oct-14 20:01N 50°58' E 001°52'0 0.0
2017-Oct-14 19:30N 50°58' E 001°52'0 0.0
2017-Oct-14 19:00N 50°58' E 001°52'0 0.0
2017-Oct-14 18:31N 50°58' E 001°52'0 0.5
2017-Oct-14 18:01N 50°58' E 001°52'713.5
2017-Oct-14 17:31N 50°59' E 001°41'918.7
2017-Oct-14 17:01N 51°03' E 001°28'713.0
2017-Oct-14 16:31N 51°07' E 001°20'1 1.3
2017-Oct-14 16:00N 51°07' E 001°21'918.1
2017-Oct-14 15:30N 51°03' E 001°34'918.4
2017-Oct-14 15:00N 50°58' E 001°46'3 6.1
2017-Oct-14 14:30N 50°58' E 001°51'0 0.0
2017-Oct-14 14:01N 50°58' E 001°51'0 0.0
2017-Oct-14 13:30N 50°58' E 001°51'611.2
2017-Oct-14 13:00N 50°58' E 001°42'917.8
2017-Oct-14 12:30N 51°03' E 001°30'815.5
2017-Oct-14 12:00N 51°07' E 001°20'0 0.0
2017-Oct-14 11:30N 51°07' E 001°20'0 0.0
2017-Oct-14 11:00N 51°07' E 001°20'4 8.3
2017-Oct-14 10:31N 51°06' E 001°26'918.5
2017-Oct-14 10:01N 51°01' E 001°39'816.0
2017-Oct-14 09:30N 50°58' E 001°51'0 0.6
2017-Oct-14 09:00N 50°58' E 001°51'0 0.0
2017-Oct-14 08:30N 50°58' E 001°51'0 0.0
2017-Oct-14 08:00N 50°58' E 001°51'0 0.0
2017-Oct-14 07:30N 50°58' E 001°51'0 0.0
2017-Oct-14 07:00N 50°58' E 001°51'0 0.0
2017-Oct-14 06:30N 50°58' E 001°51'0 0.0
2017-Oct-14 06:00N 50°58' E 001°51'0 0.0
2017-Oct-14 05:30N 50°58' E 001°51'0 0.0
2017-Oct-14 05:00N 50°58' E 001°51'0 0.0
2017-Oct-14 04:30N 50°58' E 001°51'0 0.0
2017-Oct-14 04:00N 50°58' E 001°51'0 0.0
2017-Oct-14 03:30N 50°58' E 001°51'0 0.0
2017-Oct-14 03:00N 50°58' E 001°51'0 0.0
2017-Oct-14 02:30N 50°58' E 001°51'0 0.0
2017-Oct-14 02:00N 50°58' E 001°51'0 0.0
2017-Oct-14 01:30N 50°58' E 001°51'0 0.0
2017-Oct-14 01:00N 50°58' E 001°51'0 0.0
2017-Oct-14 00:30N 50°58' E 001°51'0 0.0
2017-Oct-14 00:00N 50°58' E 001°51'0 0.0
2017-Oct-13 23:30N 50°58' E 001°51'0 0.0
2017-Oct-13 23:00N 50°58' E 001°51'0 0.0
2017-Oct-13 22:30N 50°58' E 001°51'0 0.0
2017-Oct-13 22:00N 50°58' E 001°51'0 0.0
2017-Oct-13 21:30N 50°58' E 001°51'0 0.0
2017-Oct-13 21:00N 50°58' E 001°51'0 0.0
2017-Oct-13 20:30N 50°58' E 001°51'0 0.0
2017-Oct-13 20:00N 50°58' E 001°51'0 0.0
2017-Oct-13 19:30N 50°58' E 001°51'0 0.0
2017-Oct-13 19:00N 50°58' E 001°51'0 0.0
2017-Oct-13 18:30N 50°58' E 001°51'5 9.3
2017-Oct-13 18:00N 50°58' E 001°44'918.7
2017-Oct-13 17:31N 51°03' E 001°31'815.9
2017-Oct-13 17:00N 51°07' E 001°20'0 0.0
2017-Oct-13 16:28N 51°07' E 001°20'1 2.2
2017-Oct-13 16:00N 51°07' E 001°22'816.4
2017-Oct-13 15:31N 51°03' E 001°33'917.7
2017-Oct-13 15:01N 50°58' E 001°45'4 8.7
2017-Oct-13 14:30N 50°58' E 001°52'0 0.0
2017-Oct-13 14:00N 50°58' E 001°52'0 0.0
2017-Oct-13 13:30N 50°58' E 001°52'510.7
2017-Oct-13 13:01N 50°58' E 001°43'816.2
2017-Oct-13 12:31N 51°02' E 001°32'816.5
2017-Oct-13 12:00N 51°06' E 001°21'1 2.3
2017-Oct-13 11:29N 51°07' E 001°20'0 0.0
2017-Oct-13 11:00N 51°07' E 001°20'3 5.6
2017-Oct-13 10:30N 51°06' E 001°24'918.3
2017-Oct-13 10:00N 51°01' E 001°36'917.5
2017-Oct-13 09:31N 50°58' E 001°49'2 3.0
2017-Oct-13 09:00N 50°58' E 001°52'0 0.0
2017-Oct-13 08:30N 50°58' E 001°52'0 0.2
2017-Oct-13 08:00N 50°58' E 001°52'0 0.0
2017-Oct-13 07:30N 50°58' E 001°52'0 0.0
2017-Oct-13 07:00N 50°58' E 001°52'0 0.0
2017-Oct-13 06:30N 50°58' E 001°52'0 0.0
2017-Oct-13 06:00N 50°58' E 001°52'0 0.0
2017-Oct-13 05:30N 50°58' E 001°52'0 0.0
2017-Oct-13 05:01N 50°58' E 001°52'0 0.0
2017-Oct-13 04:30N 50°58' E 001°52'0 0.0
2017-Oct-13 04:00N 50°58' E 001°52'0 0.0
2017-Oct-13 03:30N 50°58' E 001°52'0 0.0
2017-Oct-13 03:00N 50°58' E 001°52'0 0.0
2017-Oct-13 02:30N 50°58' E 001°52'0 0.0
2017-Oct-13 02:00N 50°58' E 001°52'0 0.0
2017-Oct-13 01:30N 50°58' E 001°52'0 0.0
2017-Oct-13 01:00N 50°58' E 001°52'0 0.0
2017-Oct-13 00:30N 50°58' E 001°52'0 0.0
2017-Oct-13 00:00N 50°58' E 001°52'0 0.0
2017-Oct-12 23:30N 50°58' E 001°52'0 0.0
2017-Oct-12 23:00N 50°58' E 001°52'0 0.0
2017-Oct-12 22:30N 50°58' E 001°52'0 0.0
2017-Oct-12 22:00N 50°58' E 001°52'0 0.0
2017-Oct-12 21:30N 50°58' E 001°52'0 0.0
2017-Oct-12 21:01N 50°58' E 001°52'0 0.0
2017-Oct-12 20:30N 50°58' E 001°52'0 0.0
2017-Oct-12 20:00N 50°58' E 001°52'0 0.2
2017-Oct-12 19:30N 50°58' E 001°52'1 1.2
2017-Oct-12 19:00N 50°58' E 001°51'815.6
2017-Oct-12 18:30N 50°59' E 001°38'816.9
2017-Oct-12 18:00N 51°04' E 001°28'612.0
2017-Oct-12 17:30N 51°07' E 001°20'0 0.0
2017-Oct-12 17:00N 51°07' E 001°20'1 2.2
2017-Oct-12 16:29N 51°07' E 001°22'714.4
2017-Oct-12 16:01N 51°05' E 001°32'815.3
2017-Oct-12 15:31N 50°60' E 001°41'612.8
2017-Oct-12 15:01N 50°58' E 001°51'0 0.6
2017-Oct-12 14:30N 50°58' E 001°52'0 0.0
2017-Oct-12 14:00N 50°58' E 001°52'3 6.3
2017-Oct-12 13:30N 50°58' E 001°47'713.9
2017-Oct-12 13:01N 50°60' E 001°36'815.8
2017-Oct-12 12:31N 51°04' E 001°26'5 9.5
2017-Oct-12 12:00N 51°07' E 001°20'0 0.0
2017-Oct-12 11:29N 51°07' E 001°20'0 0.1
2017-Oct-12 11:00N 51°07' E 001°20'713.3
2017-Oct-12 10:30N 51°06' E 001°30'917.5
2017-Oct-12 10:00N 51°01' E 001°41'714.1
2017-Oct-12 09:30N 50°58' E 001°51'0 0.3
2017-Oct-12 09:01N 50°58' E 001°52'0 0.0
2017-Oct-12 08:30N 50°58' E 001°52'0 0.0
2017-Oct-12 08:01N 50°58' E 001°52'0 0.0
2017-Oct-12 07:30N 50°58' E 001°52'0 0.0
2017-Oct-12 07:01N 50°58' E 001°52'0 0.0
2017-Oct-12 06:31N 50°58' E 001°52'0 0.0
2017-Oct-12 06:00N 50°58' E 001°52'0 0.0
2017-Oct-12 05:30N 50°58' E 001°52'0 0.0
2017-Oct-12 05:00N 50°58' E 001°52'0 0.0
2017-Oct-12 04:30N 50°58' E 001°52'0 0.0
2017-Oct-12 04:00N 50°58' E 001°52'0 0.0
2017-Oct-12 03:30N 50°58' E 001°52'0 0.0
2017-Oct-12 03:01N 50°58' E 001°52'0 0.0
2017-Oct-12 02:30N 50°58' E 001°52'0 0.0
2017-Oct-12 02:00N 50°58' E 001°52'0 0.0
2017-Oct-12 01:30N 50°58' E 001°52'0 0.0
2017-Oct-12 01:00N 50°58' E 001°52'0 0.0
2017-Oct-12 00:30N 50°58' E 001°52'0 0.0
2017-Oct-12 00:00N 50°58' E 001°52'0 0.0
2017-Oct-11 23:30N 50°58' E 001°52'0 0.0
2017-Oct-11 23:00N 50°58' E 001°52'0 0.0
2017-Oct-11 22:30N 50°58' E 001°52'0 0.0
2017-Oct-11 22:00N 50°58' E 001°52'0 0.0
2017-Oct-11 21:30N 50°58' E 001°52'0 0.0
2017-Oct-11 21:00N 50°58' E 001°52'0 0.0
2017-Oct-11 20:30N 50°58' E 001°52'0 0.0
2017-Oct-11 20:00N 50°58' E 001°52'0 0.0
2017-Oct-11 19:30N 50°58' E 001°52'0 0.0
2017-Oct-11 19:00N 50°58' E 001°52'4 7.6
2017-Oct-11 18:30N 50°58' E 001°46'917.7
2017-Oct-11 18:00N 51°02' E 001°33'917.5
2017-Oct-11 17:30N 51°07' E 001°22'1 2.3
2017-Oct-11 17:00N 51°07' E 001°20'22 1.3
2017-Oct-11 00:00N 50°58' E 001°52'0 0.0
2017-Oct-10 23:30N 50°58' E 001°52'0 0.0
2017-Oct-10 23:01N 50°58' E 001°52'0 0.0
2017-Oct-10 22:30N 50°58' E 001°52'0 0.0
2017-Oct-10 22:00N 50°58' E 001°52'0 0.0
2017-Oct-10 21:31N 50°58' E 001°52'0 0.0
2017-Oct-10 21:01N 50°58' E 001°52'0 0.0
2017-Oct-10 20:30N 50°58' E 001°52'0 0.0
2017-Oct-10 20:01N 50°58' E 001°52'0 0.0
2017-Oct-10 19:31N 50°58' E 001°52'  
Track history (hours):
 
Tides and Currents Weather Stations Pressure Air Temp Water Temp Dewpoint Dewpoint Depression Visibility Wind Speed Wind Dir Waves Ship Positions

European Seaway

Operator: P & O Ferries

Last reported at 2017-Oct-20 19:30 UTC. Time now 2017-Oct-20 19:51 UTC.
Position N 50°58' E 001°51'.

Length 179 m; draft 6.1 m.

Type: Passenger vessel. MMSI: 232001040.

Date/timePositionNaut miles runAvg speedWind from/ knotsBaromVisibWave heightAir tempDewpointWater temp
2017-Oct-20 19:30N 50°58' E 001°51'5 9.3
2017-Oct-20 19:00N 50°58' E 001°44'816.5
2017-Oct-20 18:31N 51°02' E 001°32'917.2
2017-Oct-20 18:00N 51°07' E 001°21'1 1.5
2017-Oct-20 17:30N 51°07' E 001°20'0 0.0
2017-Oct-20 17:00N 51°07' E 001°20'2 3.8
2017-Oct-20 16:30N 51°07' E 001°23'3 6.7
2017-Oct-20 16:00N 51°06' E 001°28'713.6
2017-Oct-20 15:31N 51°02' E 001°37'714.3
2017-Oct-20 15:01N 50°58' E 001°46'3 3.5
2017-Oct-20 14:00N 50°58' E 001°52'0 0.4
2017-Oct-20 13:30N 50°58' E 001°52'0 0.0
2017-Oct-20 13:00N 50°58' E 001°52'0 0.0
2017-Oct-20 12:30N 50°58' E 001°52'0 0.0
2017-Oct-20 12:00N 50°58' E 001°52'0 0.0
2017-Oct-20 11:30N 50°58' E 001°52'0 0.0
2017-Oct-20 10:56N 50°58' E 001°52'0 0.0
2017-Oct-20 10:29N 50°58' E 001°52'0 0.0
2017-Oct-20 10:00N 50°58' E 001°52'0 0.0
2017-Oct-20 09:30N 50°58' E 001°52'0 0.0
2017-Oct-20 09:00N 50°58' E 001°52'0 0.0
2017-Oct-20 08:30N 50°58' E 001°52'0 0.0
2017-Oct-20 08:00N 50°58' E 001°52'0 0.0
2017-Oct-20 07:30N 50°58' E 001°52'0 0.0
2017-Oct-20 07:00N 50°58' E 001°52'0 0.0
2017-Oct-20 06:30N 50°58' E 001°52'0 0.0
2017-Oct-20 06:00N 50°58' E 001°52'0 0.0
2017-Oct-20 05:30N 50°58' E 001°52'0 0.0
2017-Oct-20 05:00N 50°58' E 001°52'0 0.0
2017-Oct-20 04:30N 50°58' E 001°52'0 0.0
2017-Oct-20 04:00N 50°58' E 001°52'0 0.0
2017-Oct-20 03:30N 50°58' E 001°52'0 0.0
2017-Oct-20 03:00N 50°58' E 001°52'0 0.0
2017-Oct-20 02:30N 50°58' E 001°52'0 0.0
2017-Oct-20 02:00N 50°58' E 001°52'0 0.0
2017-Oct-20 01:30N 50°58' E 001°52'0 0.0
2017-Oct-20 01:00N 50°58' E 001°52'0 0.0
2017-Oct-20 00:30N 50°58' E 001°52'0 0.0
2017-Oct-20 00:00N 50°58' E 001°52'0 0.0
2017-Oct-19 23:30N 50°58' E 001°52'0 0.0
2017-Oct-19 23:00N 50°58' E 001°52'0 0.0
2017-Oct-19 22:30N 50°58' E 001°52'0 0.0
2017-Oct-19 22:00N 50°58' E 001°52'0 0.0
2017-Oct-19 21:30N 50°58' E 001°52'0 0.0
2017-Oct-19 21:00N 50°58' E 001°52'0 0.0
2017-Oct-19 20:30N 50°58' E 001°52'0 0.0
2017-Oct-19 20:00N 50°58' E 001°52'0 0.0
2017-Oct-19 19:31N 50°58' E 001°52'0 0.4
2017-Oct-19 19:01N 50°58' E 001°52'2 4.3
2017-Oct-19 18:30N 50°58' E 001°48'815.8
2017-Oct-19 18:00N 50°58' E 001°36'917.3
2017-Oct-19 17:31N 51°04' E 001°25'5 9.4
2017-Oct-19 17:00N 51°07' E 001°20'0 0.0
2017-Oct-19 16:30N 51°07' E 001°20'0 0.3
2017-Oct-19 15:59N 51°07' E 001°20'714.4
2017-Oct-19 15:31N 51°05' E 001°30'917.9
2017-Oct-19 15:01N 50°60' E 001°42'611.9
2017-Oct-19 14:30N 50°58' E 001°51'0 0.0
2017-Oct-19 14:00N 50°58' E 001°51'2 3.2
2017-Oct-19 13:31N 50°58' E 001°48'816.7
2017-Oct-19 13:01N 50°60' E 001°35'714.4
2017-Oct-19 12:31N 51°05' E 001°27'510.3
2017-Oct-19 12:00N 51°07' E 001°20'0 0.0
2017-Oct-19 11:31N 51°07' E 001°20'0 0.8
2017-Oct-19 11:00N 51°07' E 001°21'817.1
2017-Oct-19 10:31N 51°04' E 001°33'917.7
2017-Oct-19 10:01N 50°58' E 001°44'5 9.4
2017-Oct-19 09:30N 50°58' E 001°52'0 0.0
2017-Oct-19 09:00N 50°58' E 001°52'0 0.0
2017-Oct-19 08:30N 50°58' E 001°52'0 0.2
2017-Oct-19 08:00N 50°58' E 001°52'0 0.0
2017-Oct-19 07:30N 50°58' E 001°52'0 0.0
2017-Oct-19 07:00N 50°58' E 001°52'0 0.0
2017-Oct-19 06:30N 50°58' E 001°52'0 0.0
2017-Oct-19 06:00N 50°58' E 001°52'0 0.0
2017-Oct-19 05:30N 50°58' E 001°52'0 0.0
2017-Oct-19 05:00N 50°58' E 001°52'0 0.0
2017-Oct-19 04:30N 50°58' E 001°52'0 0.0
2017-Oct-19 04:00N 50°58' E 001°52'0 0.0
2017-Oct-19 03:30N 50°58' E 001°52'0 0.0
2017-Oct-19 03:00N 50°58' E 001°52'0 0.0
2017-Oct-19 02:30N 50°58' E 001°52'0 0.0
2017-Oct-19 02:00N 50°58' E 001°52'0 0.0
2017-Oct-19 01:30N 50°58' E 001°52'0 0.0
2017-Oct-19 01:00N 50°58' E 001°52'0 0.0
2017-Oct-19 00:30N 50°58' E 001°52'0 0.0
2017-Oct-19 00:00N 50°58' E 001°52'0 0.0
2017-Oct-18 23:30N 50°58' E 001°52'0 0.0
2017-Oct-18 23:00N 50°58' E 001°52'0 0.0
2017-Oct-18 22:30N 50°58' E 001°52'0 0.0
2017-Oct-18 22:01N 50°58' E 001°52'0 0.0
2017-Oct-18 21:30N 50°58' E 001°52'0 0.0
2017-Oct-18 21:01N 50°58' E 001°52'0 0.0
2017-Oct-18 20:30N 50°58' E 001°52'0 0.0
2017-Oct-18 20:00N 50°58' E 001°52'0 0.0
2017-Oct-18 19:30N 50°58' E 001°52'0 0.8
2017-Oct-18 19:00N 50°58' E 001°51'3 5.2
2017-Oct-18 18:30N 50°58' E 001°47'816.0
2017-Oct-18 18:01N 50°58' E 001°34'918.2
2017-Oct-18 17:30N 51°05' E 001°25'4 7.6
2017-Oct-18 17:00N 51°07' E 001°20'0 0.0
2017-Oct-18 16:30N 51°07' E 001°20'1 1.8
2017-Oct-18 16:00N 51°07' E 001°21'816.4
2017-Oct-18 15:30N 51°04' E 001°34'815.8
2017-Oct-18 15:00N 50°59' E 001°43'5 5.1
2017-Oct-18 14:00N 50°58' E 001°51'0 0.5
2017-Oct-18 13:30N 50°58' E 001°51'815.9
2017-Oct-18 13:01N 50°59' E 001°38'816.8
2017-Oct-18 12:31N 51°04' E 001°27'611.3
2017-Oct-18 12:00N 51°07' E 001°20'0 0.0
2017-Oct-18 11:22N 51°07' E 001°20'0 0.0
2017-Oct-18 11:00N 51°07' E 001°20'5 9.5
2017-Oct-18 10:31N 51°06' E 001°27'917.7
2017-Oct-18 10:01N 51°01' E 001°39'815.2
2017-Oct-18 09:30N 50°58' E 001°50'1 2.0
2017-Oct-18 09:00N 50°58' E 001°52'0 0.0
2017-Oct-18 08:30N 50°58' E 001°52'0 0.0
2017-Oct-18 08:00N 50°58' E 001°52'0 0.0
2017-Oct-18 07:30N 50°58' E 001°52'0 0.0
2017-Oct-18 07:00N 50°58' E 001°52'0 0.0
2017-Oct-18 06:30N 50°58' E 001°52'0 0.0
2017-Oct-18 06:00N 50°58' E 001°52'0 0.0
2017-Oct-18 05:30N 50°58' E 001°52'0 0.0
2017-Oct-18 05:00N 50°58' E 001°52'0 0.0
2017-Oct-18 04:30N 50°58' E 001°52'0 0.0
2017-Oct-18 04:00N 50°58' E 001°52'0 0.0
2017-Oct-18 03:30N 50°58' E 001°52'0 0.0
2017-Oct-18 03:00N 50°58' E 001°52'0 0.0
2017-Oct-18 02:30N 50°58' E 001°52'0 0.0
2017-Oct-18 02:00N 50°58' E 001°52'0 0.0
2017-Oct-18 01:30N 50°58' E 001°52'0 0.0
2017-Oct-18 01:00N 50°58' E 001°52'0 0.0
2017-Oct-18 00:30N 50°58' E 001°52'0 0.0
2017-Oct-18 00:00N 50°58' E 001°52'0 0.0
2017-Oct-17 23:30N 50°58' E 001°52'0 0.0
2017-Oct-17 23:00N 50°58' E 001°52'0 0.0
2017-Oct-17 22:30N 50°58' E 001°52'0 0.0
2017-Oct-17 22:00N 50°58' E 001°52'0 0.0
2017-Oct-17 21:30N 50°58' E 001°52'0 0.0
2017-Oct-17 21:00N 50°58' E 001°52'0 0.0
2017-Oct-17 20:30N 50°58' E 001°52'0 0.0
2017-Oct-17 20:00N 50°58' E 001°52'0 0.0
2017-Oct-17 19:30N 50°58' E 001°52'0 0.0
2017-Oct-17 19:00N 50°58' E 001°52'2 3.5
2017-Oct-17 18:30N 50°58' E 001°49'816.5
2017-Oct-17 18:01N 51°00' E 001°36'918.0
2017-Oct-17 17:31N 51°05' E 001°25'3 6.7
2017-Oct-17 17:00N 51°07' E 001°20'0 0.0
2017-Oct-17 16:30N 51°07' E 001°20'2 3.5
2017-Oct-17 16:00N 51°07' E 001°23'917.3
2017-Oct-17 15:31N 51°03' E 001°35'918.0
2017-Oct-17 15:00N 50°58' E 001°47'2 4.8
2017-Oct-17 14:30N 50°58' E 001°51'0 0.0
2017-Oct-17 14:00N 50°58' E 001°51'0 0.0
2017-Oct-17 13:31N 50°58' E 001°51'713.1
2017-Oct-17 13:00N 50°59' E 001°41'918.4
2017-Oct-17 12:30N 51°04' E 001°28'612.6
2017-Oct-17 12:00N 51°07' E 001°20'0 0.0
2017-Oct-17 11:30N 51°07' E 001°20'0 0.0
2017-Oct-17 10:59N 51°07' E 001°20'511.2
2017-Oct-17 10:30N 51°07' E 001°28'917.3
2017-Oct-17 10:00N 51°01' E 001°39'714.8
2017-Oct-17 09:31N 50°58' E 001°50'1 2.4
2017-Oct-17 09:01N 50°58' E 001°52'0 0.0
2017-Oct-17 08:30N 50°58' E 001°52'0 0.0
2017-Oct-17 08:00N 50°58' E 001°52'0 0.0
2017-Oct-17 07:30N 50°58' E 001°52'0 0.0
2017-Oct-17 07:00N 50°58' E 001°52'0 0.0
2017-Oct-17 06:30N 50°58' E 001°52'0 0.0
2017-Oct-17 06:00N 50°58' E 001°52'0 0.0
2017-Oct-17 05:30N 50°58' E 001°52'0 0.0
2017-Oct-17 05:00N 50°58' E 001°52'0 0.0
2017-Oct-17 04:30N 50°58' E 001°52'0 0.0
2017-Oct-17 04:01N 50°58' E 001°52'0 0.0
2017-Oct-17 03:30N 50°58' E 001°52'0 0.0
2017-Oct-17 03:01N 50°58' E 001°52'0 0.0
2017-Oct-17 02:30N 50°58' E 001°52'0 0.0
2017-Oct-17 02:00N 50°58' E 001°52'0 0.0
2017-Oct-17 01:30N 50°58' E 001°52'0 0.0
2017-Oct-17 01:00N 50°58' E 001°52'0 0.0
2017-Oct-17 00:30N 50°58' E 001°52'0 0.0
2017-Oct-17 00:00N 50°58' E 001°52'0 0.0
2017-Oct-16 23:30N 50°58' E 001°52'0 0.0
2017-Oct-16 23:00N 50°58' E 001°52'0 0.0
2017-Oct-16 22:30N 50°58' E 001°52'0 0.0
2017-Oct-16 22:00N 50°58' E 001°52'0 0.0
2017-Oct-16 21:30N 50°58' E 001°52'0 0.0
2017-Oct-16 21:01N 50°58' E 001°52'0 0.0
2017-Oct-16 20:30N 50°58' E 001°52'0 0.0
2017-Oct-16 20:00N 50°58' E 001°52'0 0.0
2017-Oct-16 19:30N 50°58' E 001°52'0 0.0
2017-Oct-16 19:00N 50°58' E 001°52'0 0.4
2017-Oct-16 18:30N 50°58' E 001°51'815.3
2017-Oct-16 18:00N 50°58' E 001°39'918.2
2017-Oct-16 17:31N 51°04' E 001°27'612.0
2017-Oct-16 17:00N 51°07' E 001°20'0 0.0
2017-Oct-16 16:30N 51°07' E 001°20'1 1.5
2017-Oct-16 16:00N 51°07' E 001°21'714.5
2017-Oct-16 15:30N 51°04' E 001°31'918.8
2017-Oct-16 15:00N 50°59' E 001°44'4 4.4
2017-Oct-16 14:01N 50°58' E 001°51'0 0.0
2017-Oct-16 13:30N 50°58' E 001°51'0 0.0
2017-Oct-16 13:00N 50°58' E 001°51'0 0.0
2017-Oct-16 12:30N 50°58' E 001°51'0 0.0
2017-Oct-16 12:01N 50°58' E 001°51'0 0.0
2017-Oct-16 11:31N 50°58' E 001°51'0 0.0
2017-Oct-16 11:00N 50°58' E 001°51'0 0.0
2017-Oct-16 10:31N 50°58' E 001°51'0 0.0
2017-Oct-16 10:00N 50°58' E 001°51'0 0.0
2017-Oct-16 09:31N 50°58' E 001°51'0 0.0
2017-Oct-16 09:00N 50°58' E 001°51'0 0.0
2017-Oct-16 08:31N 50°58' E 001°51'0 0.0
2017-Oct-16 08:01N 50°58' E 001°51'0 0.0
2017-Oct-16 07:31N 50°58' E 001°51'0 0.0
2017-Oct-16 07:01N 50°58' E 001°51'0 0.0
2017-Oct-16 06:31N 50°58' E 001°51'0 0.0
2017-Oct-16 06:00N 50°58' E 001°51'0 0.0
2017-Oct-16 05:30N 50°58' E 001°51'0 0.0
2017-Oct-16 05:01N 50°58' E 001°51'0 0.0
2017-Oct-16 04:31N 50°58' E 001°51'0 0.0
2017-Oct-16 04:01N 50°58' E 001°51'0 0.0
2017-Oct-16 03:31N 50°58' E 001°51'0 0.0
2017-Oct-16 03:01N 50°58' E 001°51'0 0.0
2017-Oct-16 02:31N 50°58' E 001°51'0 0.0
2017-Oct-16 02:01N 50°58' E 001°51'0 0.0
2017-Oct-16 01:31N 50°58' E 001°51'0 0.0
2017-Oct-16 01:01N 50°58' E 001°51'0 0.0
2017-Oct-16 00:30N 50°58' E 001°51'0 0.0
2017-Oct-16 00:01N 50°58' E 001°51'0 0.0
2017-Oct-15 23:30N 50°58' E 001°51'0 0.0
2017-Oct-15 23:01N 50°58' E 001°51'0 0.0
2017-Oct-15 22:30N 50°58' E 001°51'0 0.0
2017-Oct-15 22:00N 50°58' E 001°51'0 0.0
2017-Oct-15 21:30N 50°58' E 001°51'0 0.0
2017-Oct-15 21:00N 50°58' E 001°51'0 0.0
2017-Oct-15 20:31N 50°58' E 001°51'0 0.0
2017-Oct-15 20:00N 50°58' E 001°51'0 0.0
2017-Oct-15 19:30N 50°58' E 001°51'0 0.0
2017-Oct-15 19:01N 50°58' E 001°51'0 0.3
2017-Oct-15 18:30N 50°58' E 001°51'917.3
2017-Oct-15 18:00N 50°60' E 001°37'918.9
2017-Oct-15 17:30N 51°05' E 001°25'4 7.4
2017-Oct-15 16:59N 51°07' E 001°20'0 0.0
2017-Oct-15 16:30N 51°07' E 001°20'1 2.1
2017-Oct-15 16:00N 51°07' E 001°22'816.2
2017-Oct-15 15:31N 51°03' E 001°33'918.6
2017-Oct-15 15:00N 50°58' E 001°45'4 4.1
2017-Oct-15 14:01N 50°58' E 001°52'0 0.0
2017-Oct-15 13:30N 50°58' E 001°52'0 0.6
2017-Oct-15 13:00N 50°58' E 001°52'0 0.0
2017-Oct-15 12:30N 50°58' E 001°52'0 0.0
2017-Oct-15 12:01N 50°58' E 001°52'0 0.0
2017-Oct-15 11:30N 50°58' E 001°52'0 0.0
2017-Oct-15 11:00N 50°58' E 001°52'0 0.0
2017-Oct-15 10:31N 50°58' E 001°52'0 0.0
2017-Oct-15 10:00N 50°58' E 001°52'0 0.0
2017-Oct-15 09:31N 50°58' E 001°52'0 0.0
2017-Oct-15 09:00N 50°58' E 001°52'0 0.0
2017-Oct-15 08:31N 50°58' E 001°52'0 0.0
2017-Oct-15 08:00N 50°58' E 001°52'0 0.0
2017-Oct-15 07:31N 50°58' E 001°52'0 0.0
2017-Oct-15 07:01N 50°58' E 001°52'0 0.0
2017-Oct-15 06:31N 50°58' E 001°52'0 0.0
2017-Oct-15 06:01N 50°58' E 001°52'0 0.0
2017-Oct-15 05:30N 50°58' E 001°52'0 0.0
2017-Oct-15 05:00N 50°58' E 001°52'0 0.0
2017-Oct-15 04:31N 50°58' E 001°52'0 0.0
2017-Oct-15 04:00N 50°58' E 001°52'0 0.0
2017-Oct-15 03:30N 50°58' E 001°52'0 0.0
2017-Oct-15 03:00N 50°58' E 001°52'0 0.0
2017-Oct-15 02:31N 50°58' E 001°52'0 0.0
2017-Oct-15 02:01N 50°58' E 001°52'0 0.0
2017-Oct-15 01:31N 50°58' E 001°52'0 0.0
2017-Oct-15 01:01N 50°58' E 001°52'0 0.0
2017-Oct-15 00:30N 50°58' E 001°52'0 0.0
2017-Oct-15 00:00N 50°58' E 001°52'0 0.0
2017-Oct-14 23:30N 50°58' E 001°52'0 0.0
2017-Oct-14 23:01N 50°58' E 001°52'0 0.0
2017-Oct-14 22:30N 50°58' E 001°52'0 0.0
2017-Oct-14 22:00N 50°58' E 001°52'0 0.0
2017-Oct-14 21:30N 50°58' E 001°52'0 0.0
2017-Oct-14 21:00N 50°58' E 001°52'0 0.0
2017-Oct-14 20:31N 50°58' E 001°52'0 0.0
2017-Oct-14 20:01N 50°58' E 001°52'0 0.0
2017-Oct-14 19:30N 50°58' E 001°52'0 0.0
2017-Oct-14 19:00N 50°58' E 001°52'0 0.0
2017-Oct-14 18:31N 50°58' E 001°52'0 0.5
2017-Oct-14 18:01N 50°58' E 001°52'713.5
2017-Oct-14 17:31N 50°59' E 001°41'918.7
2017-Oct-14 17:01N 51°03' E 001°28'713.0
2017-Oct-14 16:31N 51°07' E 001°20'1 1.3
2017-Oct-14 16:00N 51°07' E 001°21'918.1
2017-Oct-14 15:30N 51°03' E 001°34'918.4
2017-Oct-14 15:00N 50°58' E 001°46'3 6.1
2017-Oct-14 14:30N 50°58' E 001°51'0 0.0
2017-Oct-14 14:01N 50°58' E 001°51'0 0.0
2017-Oct-14 13:30N 50°58' E 001°51'611.2
2017-Oct-14 13:00N 50°58' E 001°42'917.8
2017-Oct-14 12:30N 51°03' E 001°30'815.5
2017-Oct-14 12:00N 51°07' E 001°20'0 0.0
2017-Oct-14 11:30N 51°07' E 001°20'0 0.0
2017-Oct-14 11:00N 51°07' E 001°20'4 8.3
2017-Oct-14 10:31N 51°06' E 001°26'918.5
2017-Oct-14 10:01N 51°01' E 001°39'816.0
2017-Oct-14 09:30N 50°58' E 001°51'0 0.6
2017-Oct-14 09:00N 50°58' E 001°51'0 0.0
2017-Oct-14 08:30N 50°58' E 001°51'0 0.0
2017-Oct-14 08:00N 50°58' E 001°51'0 0.0
2017-Oct-14 07:30N 50°58' E 001°51'0 0.0
2017-Oct-14 07:00N 50°58' E 001°51'0 0.0
2017-Oct-14 06:30N 50°58' E 001°51'0 0.0
2017-Oct-14 06:00N 50°58' E 001°51'0 0.0
2017-Oct-14 05:30N 50°58' E 001°51'0 0.0
2017-Oct-14 05:00N 50°58' E 001°51'0 0.0
2017-Oct-14 04:30N 50°58' E 001°51'0 0.0
2017-Oct-14 04:00N 50°58' E 001°51'0 0.0
2017-Oct-14 03:30N 50°58' E 001°51'0 0.0
2017-Oct-14 03:00N 50°58' E 001°51'0 0.0
2017-Oct-14 02:30N 50°58' E 001°51'0 0.0
2017-Oct-14 02:00N 50°58' E 001°51'0 0.0
2017-Oct-14 01:30N 50°58' E 001°51'0 0.0
2017-Oct-14 01:00N 50°58' E 001°51'0 0.0
2017-Oct-14 00:30N 50°58' E 001°51'0 0.0
2017-Oct-14 00:00N 50°58' E 001°51'0 0.0
2017-Oct-13 23:30N 50°58' E 001°51'0 0.0
2017-Oct-13 23:00N 50°58' E 001°51'0 0.0
2017-Oct-13 22:30N 50°58' E 001°51'0 0.0
2017-Oct-13 22:00N 50°58' E 001°51'0 0.0
2017-Oct-13 21:30N 50°58' E 001°51'0 0.0
2017-Oct-13 21:00N 50°58' E 001°51'0 0.0
2017-Oct-13 20:30N 50°58' E 001°51'0 0.0
2017-Oct-13 20:00N 50°58' E 001°51'0 0.0
2017-Oct-13 19:30N 50°58' E 001°51'0 0.0
2017-Oct-13 19:00N 50°58' E 001°51'0 0.0
2017-Oct-13 18:30N 50°58' E 001°51'5 9.3
2017-Oct-13 18:00N 50°58' E 001°44'918.7
2017-Oct-13 17:31N 51°03' E 001°31'815.9
2017-Oct-13 17:00N 51°07' E 001°20'0 0.0
2017-Oct-13 16:28N 51°07' E 001°20'1 2.2
2017-Oct-13 16:00N 51°07' E 001°22'816.4
2017-Oct-13 15:31N 51°03' E 001°33'917.7
2017-Oct-13 15:01N 50°58' E 001°45'4 8.7
2017-Oct-13 14:30N 50°58' E 001°52'0 0.0
2017-Oct-13 14:00N 50°58' E 001°52'0 0.0
2017-Oct-13 13:30N 50°58' E 001°52'510.7
2017-Oct-13 13:01N 50°58' E 001°43'816.2
2017-Oct-13 12:31N 51°02' E 001°32'816.5
2017-Oct-13 12:00N 51°06' E 001°21'1 2.3
2017-Oct-13 11:29N 51°07' E 001°20'0 0.0
2017-Oct-13 11:00N 51°07' E 001°20'3 5.6
2017-Oct-13 10:30N 51°06' E 001°24'918.3
2017-Oct-13 10:00N 51°01' E 001°36'917.5
2017-Oct-13 09:31N 50°58' E 001°49'2 3.0
2017-Oct-13 09:00N 50°58' E 001°52'0 0.0
2017-Oct-13 08:30N 50°58' E 001°52'0 0.2
2017-Oct-13 08:00N 50°58' E 001°52'0 0.0
2017-Oct-13 07:30N 50°58' E 001°52'0 0.0
2017-Oct-13 07:00N 50°58' E 001°52'0 0.0
2017-Oct-13 06:30N 50°58' E 001°52'0 0.0
2017-Oct-13 06:00N 50°58' E 001°52'0 0.0
2017-Oct-13 05:30N 50°58' E 001°52'0 0.0
2017-Oct-13 05:01N 50°58' E 001°52'0 0.0
2017-Oct-13 04:30N 50°58' E 001°52'0 0.0
2017-Oct-13 04:00N 50°58' E 001°52'0 0.0
2017-Oct-13 03:30N 50°58' E 001°52'0 0.0
2017-Oct-13 03:00N 50°58' E 001°52'0 0.0
2017-Oct-13 02:30N 50°58' E 001°52'0 0.0
2017-Oct-13 02:00N 50°58' E 001°52'0 0.0
2017-Oct-13 01:30N 50°58' E 001°52'0 0.0
2017-Oct-13 01:00N 50°58' E 001°52'0 0.0
2017-Oct-13 00:30N 50°58' E 001°52'0 0.0
2017-Oct-13 00:00N 50°58' E 001°52'0 0.0
2017-Oct-12 23:30N 50°58' E 001°52'0 0.0
2017-Oct-12 23:00N 50°58' E 001°52'0 0.0
2017-Oct-12 22:30N 50°58' E 001°52'0 0.0
2017-Oct-12 22:00N 50°58' E 001°52'0 0.0
2017-Oct-12 21:30N 50°58' E 001°52'0 0.0
2017-Oct-12 21:01N 50°58' E 001°52'0 0.0
2017-Oct-12 20:30N 50°58' E 001°52'0 0.0
2017-Oct-12 20:00N 50°58' E 001°52'0 0.2
2017-Oct-12 19:30N 50°58' E 001°52'1 1.2
2017-Oct-12 19:00N 50°58' E 001°51'815.6
2017-Oct-12 18:30N 50°59' E 001°38'816.9
2017-Oct-12 18:00N 51°04' E 001°28'612.0
2017-Oct-12 17:30N 51°07' E 001°20'0 0.0
2017-Oct-12 17:00N 51°07' E 001°20'1 2.2
2017-Oct-12 16:29N 51°07' E 001°22'714.4
2017-Oct-12 16:01N 51°05' E 001°32'815.3
2017-Oct-12 15:31N 50°60' E 001°41'612.8
2017-Oct-12 15:01N 50°58' E 001°51'0 0.6
2017-Oct-12 14:30N 50°58' E 001°52'0 0.0
2017-Oct-12 14:00N 50°58' E 001°52'3 6.3
2017-Oct-12 13:30N 50°58' E 001°47'713.9
2017-Oct-12 13:01N 50°60' E 001°36'815.8
2017-Oct-12 12:31N 51°04' E 001°26'5 9.5
2017-Oct-12 12:00N 51°07' E 001°20'0 0.0
2017-Oct-12 11:29N 51°07' E 001°20'0 0.1
2017-Oct-12 11:00N 51°07' E 001°20'713.3
2017-Oct-12 10:30N 51°06' E 001°30'917.5
2017-Oct-12 10:00N 51°01' E 001°41'714.1
2017-Oct-12 09:30N 50°58' E 001°51'0 0.3
2017-Oct-12 09:01N 50°58' E 001°52'0 0.0
2017-Oct-12 08:30N 50°58' E 001°52'0 0.0
2017-Oct-12 08:01N 50°58' E 001°52'0 0.0
2017-Oct-12 07:30N 50°58' E 001°52'0 0.0
2017-Oct-12 07:01N 50°58' E 001°52'0 0.0
2017-Oct-12 06:31N 50°58' E 001°52'0 0.0
2017-Oct-12 06:00N 50°58' E 001°52'0 0.0
2017-Oct-12 05:30N 50°58' E 001°52'0 0.0
2017-Oct-12 05:00N 50°58' E 001°52'0 0.0
2017-Oct-12 04:30N 50°58' E 001°52'0 0.0
2017-Oct-12 04:00N 50°58' E 001°52'0 0.0
2017-Oct-12 03:30N 50°58' E 001°52'0 0.0
2017-Oct-12 03:01N 50°58' E 001°52'0 0.0
2017-Oct-12 02:30N 50°58' E 001°52'0 0.0
2017-Oct-12 02:00N 50°58' E 001°52'0 0.0
2017-Oct-12 01:30N 50°58' E 001°52'0 0.0
2017-Oct-12 01:00N 50°58' E 001°52'0 0.0
2017-Oct-12 00:30N 50°58' E 001°52'0 0.0
2017-Oct-12 00:00N 50°58' E 001°52'0 0.0
2017-Oct-11 23:30N 50°58' E 001°52'0 0.0
2017-Oct-11 23:00N 50°58' E 001°52'0 0.0
2017-Oct-11 22:30N 50°58' E 001°52'0 0.0
2017-Oct-11 22:00N 50°58' E 001°52'0 0.0
2017-Oct-11 21:30N 50°58' E 001°52'0 0.0
2017-Oct-11 21:00N 50°58' E 001°52'0 0.0
2017-Oct-11 20:30N 50°58' E 001°52'0 0.0
2017-Oct-11 20:00N 50°58' E 001°52'0 0.0
2017-Oct-11 19:30N 50°58' E 001°52'0 0.0
2017-Oct-11 19:00N 50°58' E 001°52'4 7.6
2017-Oct-11 18:30N 50°58' E 001°46'917.7
2017-Oct-11 18:00N 51°02' E 001°33'917.5
2017-Oct-11 17:30N 51°07' E 001°22'1 2.3
2017-Oct-11 17:00N 51°07' E 001°20'22 1.3
2017-Oct-11 00:00N 50°58' E 001°52'0 0.0
2017-Oct-10 23:30N 50°58' E 001°52'0 0.0
2017-Oct-10 23:01N 50°58' E 001°52'0 0.0
2017-Oct-10 22:30N 50°58' E 001°52'0 0.0
2017-Oct-10 22:00N 50°58' E 001°52'0 0.0
2017-Oct-10 21:31N 50°58' E 001°52'0 0.0
2017-Oct-10 21:01N 50°58' E 001°52'0 0.0
2017-Oct-10 20:30N 50°58' E 001°52'0 0.0
2017-Oct-10 20:01N 50°58' E 001°52'0 0.0
2017-Oct-10 19:31N 50°58' E 001°52'  

Dump ship's entire track history